Time;durP1;ratioP1;P1;durP2;ratioP2;P2;SDS_P1;SDS_P2;PMS_P1;PMS_P2;Temp;Humidity;BMP_temperature;BMP_pressure;BME280_temperature;BME280_humidity;BME280_pressure;Samples;Min_cycle;Max_cycle;Signal;HPM_P1;HPM_P2
2022/05/06 00:01:44;;;;;;;542.47;67.43;;;7.80;99.90;;;;;;5074530;28;20464;-72
2022/05/06 00:04:10;;;;;;;606.35;59.05;;;7.90;99.90;;;;;;5092227;28;20051;-73
2022/05/06 00:06:36;;;;;;;476.42;61.28;;;7.90;99.90;;;;;;5092096;28;20445;-73
2022/05/06 00:09:06;;;;;;;639.35;66.38;;;8.00;99.90;;;;;;5092384;28;20063;-75
2022/05/06 00:11:32;;;;;;;719.38;89.50;;;8.00;99.90;;;;;;5074359;28;20119;-74
2022/05/06 00:13:58;;;;;;;47.95;17.23;;;8.10;99.90;;;;;;5092532;28;20047;-74
2022/05/06 00:16:25;;;;;;;183.35;40.88;;;8.10;99.90;;;;;;5092281;28;20059;-73
2022/05/06 00:18:51;;;;;;;182.35;38.38;;;8.10;99.90;;;;;;5070894;28;20059;-73
2022/05/06 00:21:18;;;;;;;71.57;30.83;;;8.20;99.90;;;;;;5071025;28;20807;-74
2022/05/06 00:23:44;;;;;;;50.92;27.73;;;8.20;99.90;;;;;;5054268;28;20048;-74
2022/05/06 00:26:10;;;;;;;47.03;25.15;;;8.30;99.90;;;;;;5071595;28;20127;-75
2022/05/06 00:28:37;;;;;;;82.60;35.08;;;8.30;99.90;;;;;;5072018;28;20537;-73
2022/05/06 00:31:03;;;;;;;432.02;77.13;;;8.30;99.90;;;;;;5071883;28;20045;-75
2022/05/06 00:33:30;;;;;;;364.63;57.90;;;8.30;99.90;;;;;;5054505;28;20092;-74
2022/05/06 00:35:58;;;;;;;849.67;91.70;;;8.40;99.90;;;;;;5071855;28;20051;-73
2022/05/06 00:38:24;;;;;;;475.98;46.95;;;8.40;99.90;;;;;;5071467;28;20040;-73
2022/05/06 00:40:51;;;;;;;839.60;71.95;;;8.40;99.90;;;;;;5071810;28;20461;-73
2022/05/06 00:43:18;;;;;;;959.83;110.15;;;8.40;99.90;;;;;;5054166;28;20353;-73
2022/05/06 00:45:49;;;;;;;134.43;36.08;;;8.40;99.90;;;;;;5071877;28;20059;-73
2022/05/06 00:48:16;;;;;;;143.68;43.58;;;8.40;99.90;;;;;;5084096;28;20454;-73
2022/05/06 00:50:45;;;;;;;167.27;45.17;;;8.30;99.90;;;;;;5084648;28;20044;-74
2022/05/06 00:53:12;;;;;;;684.08;90.45;;;8.20;99.90;;;;;;5058200;28;20041;-73
2022/05/06 00:55:38;;;;;;;714.33;88.88;;;8.20;99.90;;;;;;5075519;28;20048;-72
2022/05/06 00:58:04;;;;;;;218.93;46.08;;;8.20;99.90;;;;;;5075362;28;20396;-73
2022/05/06 01:00:30;;;;;;;619.83;93.68;;;8.20;99.90;;;;;;5075048;28;20373;-75
2022/05/06 01:02:56;;;;;;;801.10;115.15;;;8.20;99.90;;;;;;5075023;28;20059;-73
2022/05/06 01:05:24;;;;;;;103.50;37.25;;;8.20;99.90;;;;;;5075027;28;20123;-74
2022/05/06 01:07:51;;;;;;;165.68;44.85;;;8.20;99.90;;;;;;5075219;28;20052;-73
2022/05/06 01:10:18;;;;;;;251.25;54.72;;;8.20;99.90;;;;;;5074960;28;20059;-72
2022/05/06 01:12:45;;;;;;;69.60;26.80;;;8.10;99.90;;;;;;5075206;28;20049;-73
2022/05/06 01:15:22;;;;;;;538.80;59.90;;;8.10;99.90;;;;;;5057604;28;20047;-74
2022/05/06 01:17:49;;;;;;;960.13;102.78;;;8.10;99.90;;;;;;5078591;28;20050;-74
2022/05/06 01:20:17;;;;;;;483.10;53.03;;;8.10;99.90;;;;;;5094731;28;20040;-72
2022/05/06 01:22:51;;;;;;;624.42;73.85;;;8.10;99.90;;;;;;5077404;28;20122;-73
2022/05/06 01:25:17;;;;;;;903.28;93.35;;;8.20;99.90;;;;;;5074556;28;20044;-74
2022/05/06 01:28:01;;;;;;;608.40;74.88;;;8.20;99.90;;;;;;5094981;28;20048;-73
2022/05/06 01:30:36;;;;;;;1069.35;129.20;;;8.20;99.90;;;;;;5095014;28;20046;-75
2022/05/06 01:33:07;;;;;;;1103.95;114.43;;;8.20;99.90;;;;;;5095218;28;20371;-75
2022/05/06 01:35:43;;;;;;;705.33;77.55;;;8.20;99.90;;;;;;5077057;28;20440;-75
2022/05/06 01:38:15;;;;;;;859.22;113.32;;;8.20;99.90;;;;;;5077053;28;20059;-74
2022/05/06 01:40:50;;;;;;;1452.35;168.95;;;8.20;99.90;;;;;;5094803;28;20047;-74
2022/05/06 01:43:18;;;;;;;846.00;106.05;;;8.20;99.90;;;;;;5094803;28;20078;-74
2022/05/06 01:45:47;;;;;;;407.17;58.45;;;8.20;99.90;;;;;;5077113;28;20132;-73
2022/05/06 01:48:16;;;;;;;699.53;106.70;;;8.20;99.90;;;;;;5074228;28;20075;-74
2022/05/06 01:50:43;;;;;;;924.78;133.27;;;8.10;99.90;;;;;;5094463;28;20047;-74
2022/05/06 01:53:09;;;;;;;937.10;127.40;;;8.10;99.90;;;;;;5094668;28;20051;-74
2022/05/06 01:55:35;;;;;;;87.32;40.78;;;8.10;99.90;;;;;;5076828;28;20102;-75
2022/05/06 01:58:02;;;;;;;130.15;46.65;;;8.10;99.90;;;;;;5094588;28;20353;-75
2022/05/06 02:00:27;;;;;;;246.98;59.08;;;8.00;99.90;;;;;;5093734;28;20341;-74
2022/05/06 02:02:55;;;;;;;314.42;68.85;;;8.00;99.90;;;;;;5094271;28;20032;-72
2022/05/06 02:05:23;;;;;;;530.35;91.28;;;8.00;99.90;;;;;;5094343;28;20043;-73
2022/05/06 02:07:51;;;;;;;696.25;113.00;;;8.10;99.90;;;;;;5094256;28;20055;-74
2022/05/06 02:10:22;;;;;;;378.08;67.45;;;8.10;99.90;;;;;;5076685;28;20047;-73
2022/05/06 02:12:48;;;;;;;611.25;91.93;;;8.10;99.90;;;;;;5076525;28;20059;-74
2022/05/06 02:15:16;;;;;;;834.97;123.97;;;8.10;99.90;;;;;;5076401;28;20372;-75
2022/05/06 02:17:42;;;;;;;866.67;130.63;;;8.10;99.90;;;;;;5076324;28;20044;-73
2022/05/06 02:20:10;;;;;;;391.15;77.00;;;8.10;99.90;;;;;;5093501;28;20121;-73
2022/05/06 02:22:37;;;;;;;627.20;104.32;;;8.10;99.90;;;;;;5093947;28;20048;-73
2022/05/06 02:25:05;;;;;;;344.45;67.28;;;8.20;99.90;;;;;;5076194;28;20039;-73
2022/05/06 02:27:33;;;;;;;274.40;68.78;;;8.20;99.90;;;;;;5093915;28;20036;-73
2022/05/06 02:35:28;;;;;;;464.70;90.57;;;8.20;99.90;;;;;;5076099;28;20055;-73
2022/05/06 02:37:55;;;;;;;476.45;96.25;;;8.20;99.90;;;;;;5076072;28;20468;-73
2022/05/06 02:40:21;;;;;;;394.88;82.10;;;8.20;99.90;;;;;;5093716;28;20074;-73
2022/05/06 02:42:46;;;;;;;473.65;89.50;;;8.20;99.90;;;;;;5093460;28;20069;-75
2022/05/06 02:45:12;;;;;;;295.33;61.92;;;8.20;99.90;;;;;;5076144;28;20063;-74
2022/05/06 02:47:38;;;;;;;350.98;72.65;;;8.20;99.90;;;;;;5093380;28;20040;-73
2022/05/06 02:50:05;;;;;;;787.33;130.35;;;8.20;99.90;;;;;;5093599;28;20040;-75
2022/05/06 02:52:31;;;;;;;568.63;108.47;;;8.30;99.90;;;;;;5093423;28;20392;-73
2022/05/06 02:54:56;;;;;;;241.13;59.03;;;8.30;99.90;;;;;;5093246;28;20074;-73
2022/05/06 02:57:22;;;;;;;589.30;112.93;;;8.40;99.90;;;;;;5093253;28;20036;-73
2022/05/06 02:59:48;;;;;;;750.08;134.38;;;8.40;99.90;;;;;;5093421;28;20052;-73
2022/05/06 03:02:14;;;;;;;370.20;80.13;;;8.50;99.90;;;;;;5075349;28;20044;-73
2022/05/06 03:04:40;;;;;;;440.92;95.05;;;8.50;99.90;;;;;;5075494;28;20051;-73
2022/05/06 03:07:08;;;;;;;116.78;52.72;;;8.60;99.90;;;;;;5093198;28;20441;-73
2022/05/06 03:09:35;;;;;;;260.15;66.80;;;8.60;99.90;;;;;;5093280;28;20441;-73
2022/05/06 03:12:01;;;;;;;634.20;107.85;;;8.60;99.90;;;;;;5075378;28;20048;-73
2022/05/06 03:14:27;;;;;;;647.92;107.68;;;8.70;99.90;;;;;;5075435;28;20047;-72
2022/05/06 03:16:52;;;;;;;432.52;80.43;;;8.70;99.90;;;;;;5075177;28;20054;-73
2022/05/06 03:19:19;;;;;;;594.83;95.60;;;8.70;99.90;;;;;;5092646;28;20060;-73
2022/05/06 03:21:54;;;;;;;387.60;69.72;;;8.80;99.90;;;;;;5092793;28;20052;-73
2022/05/06 03:24:20;;;;;;;792.20;126.68;;;8.80;99.90;;;;;;5092964;28;20055;-74
2022/05/06 03:26:46;;;;;;;634.33;103.32;;;8.80;99.90;;;;;;5092537;28;20173;-72
2022/05/06 03:29:12;;;;;;;456.95;83.00;;;8.90;99.90;;;;;;5092821;28;20260;-74
2022/05/06 03:31:38;;;;;;;600.75;104.65;;;8.90;99.90;;;;;;5092863;28;20381;-73
2022/05/06 03:34:05;;;;;;;184.15;54.10;;;8.90;99.90;;;;;;5074950;28;20044;-75
2022/05/06 03:36:32;;;;;;;352.90;77.68;;;9.00;99.90;;;;;;5092859;28;20044;-73
2022/05/06 03:38:58;;;;;;;469.35;88.20;;;9.00;99.90;;;;;;5074904;28;20063;-74
2022/05/06 03:41:24;;;;;;;316.23;73.50;;;9.10;99.90;;;;;;5092629;28;20047;-73
2022/05/06 03:43:50;;;;;;;302.42;76.72;;;9.10;99.90;;;;;;5092215;28;20047;-73
2022/05/06 03:46:16;;;;;;;133.50;52.70;;;9.20;99.90;;;;;;5092692;28;20048;-74
2022/05/06 03:48:42;;;;;;;495.25;103.05;;;9.20;99.90;;;;;;5092477;28;20047;-74
2022/05/06 03:51:23;;;;;;;344.48;67.93;;;9.20;99.90;;;;;;5090263;28;20626;-74
2022/05/06 03:53:49;;;;;;;769.08;121.57;;;9.30;99.90;;;;;;5074685;28;20432;-75
2022/05/06 03:56:15;;;;;;;253.32;62.50;;;9.30;99.90;;;;;;5057905;28;20445;-73
2022/05/06 03:58:41;;;;;;;631.00;115.38;;;9.40;99.90;;;;;;5071242;28;20408;-73
2022/05/06 04:01:07;;;;;;;492.52;99.82;;;9.40;99.90;;;;;;5072336;28;20044;-73
2022/05/06 04:03:34;;;;;;;783.10;130.45;;;9.50;99.90;;;;;;5072398;28;20040;-73
2022/05/06 04:06:00;;;;;;;351.67;79.15;;;9.50;99.90;;;;;;5072085;28;20181;-73
2022/05/06 04:08:25;;;;;;;593.25;106.13;;;9.60;99.90;;;;;;5090074;28;20057;-74
2022/05/06 04:10:51;;;;;;;289.10;71.22;;;9.60;99.90;;;;;;5092334;28;20054;-73
2022/05/06 04:13:18;;;;;;;433.67;90.32;;;9.70;99.90;;;;;;5092437;28;20048;-74
2022/05/06 04:15:48;;;;;;;257.13;69.43;;;9.70;99.90;;;;;;5092448;28;20051;-74
2022/05/06 04:18:14;;;;;;;322.70;71.37;;;9.80;99.90;;;;;;5089240;28;20113;-73
2022/05/06 04:23:31;;;;;;;613.30;68.85;;;9.90;99.90;;;;;;5094698;28;20357;-72
2022/05/06 04:26:02;;;;;;;624.75;73.93;;;10.00;99.90;;;;;;5096424;28;20071;-73
2022/05/06 04:28:28;;;;;;;292.95;55.03;;;10.10;99.90;;;;;;5096379;28;20055;-74
2022/05/06 04:30:55;;;;;;;341.15;51.60;;;10.10;99.90;;;;;;5096181;28;20040;-72
2022/05/06 04:33:22;;;;;;;317.73;49.92;;;10.20;99.90;;;;;;5078450;28;20055;-74
2022/05/06 04:35:48;;;;;;;270.15;51.90;;;10.20;99.90;;;;;;5092834;28;20048;-73
2022/05/06 04:38:14;;;;;;;250.02;45.53;;;10.20;99.90;;;;;;5096218;28;20409;-73
2022/05/06 04:40:41;;;;;;;363.58;54.53;;;10.20;99.90;;;;;;5095857;28;20437;-72
2022/05/06 04:43:07;;;;;;;455.10;57.95;;;10.30;99.90;;;;;;5096083;28;20051;-74
2022/05/06 04:45:41;;;;;;;437.77;60.22;;;10.20;99.90;;;;;;5095965;28;20043;-74
2022/05/06 04:48:07;;;;;;;306.70;50.53;;;10.30;99.90;;;;;;5078272;28;20092;-75
2022/05/06 04:50:34;;;;;;;296.70;44.20;;;10.30;99.90;;;;;;5095638;28;20048;-73
2022/05/06 04:53:01;;;;;;;191.45;42.70;;;10.40;99.90;;;;;;5095952;28;20497;-74
2022/05/06 04:55:27;;;;;;;291.23;49.13;;;10.40;99.90;;;;;;5095715;28;20445;-74
2022/05/06 04:57:53;;;;;;;160.52;32.55;;;10.40;99.90;;;;;;5095673;28;20050;-74
2022/05/06 05:00:22;;;;;;;196.95;34.50;;;10.50;99.90;;;;;;5077840;28;20056;-74
2022/05/06 05:02:48;;;;;;;309.83;41.72;;;10.40;99.90;;;;;;5095320;28;20113;-75
2022/05/06 05:05:15;;;;;;;325.33;36.22;;;10.50;99.90;;;;;;5095581;28;20048;-74
2022/05/06 05:07:41;;;;;;;225.05;32.88;;;10.50;99.90;;;;;;5095588;28;20349;-74
2022/05/06 05:10:08;;;;;;;89.45;23.95;;;10.60;99.90;;;;;;5095592;28;20078;-74
2022/05/06 05:12:35;;;;;;;153.27;26.27;;;10.60;99.90;;;;;;5095504;28;20368;-74
2022/05/06 05:15:02;;;;;;;137.63;25.58;;;10.70;99.90;;;;;;5095625;28;20047;-73
2022/05/06 05:17:28;;;;;;;53.83;18.33;;;10.70;99.90;;;;;;5077539;28;20698;-74
2022/05/06 05:19:53;;;;;;;227.77;28.80;;;10.80;99.90;;;;;;5077342;28;20094;-75
2022/05/06 05:22:20;;;;;;;137.98;23.65;;;10.80;99.90;;;;;;5094980;28;20111;-73
2022/05/06 05:24:47;;;;;;;167.90;24.67;;;10.80;99.90;;;;;;5095201;28;20080;-73
2022/05/06 05:27:15;;;;;;;53.22;17.20;;;10.90;99.90;;;;;;5095027;28;20455;-74
2022/05/06 05:29:42;;;;;;;167.23;25.02;;;10.90;99.90;;;;;;5077252;28;20063;-74
2022/05/06 05:32:09;;;;;;;139.00;22.60;;;10.90;99.90;;;;;;5095010;28;20119;-74
2022/05/06 05:34:36;;;;;;;116.30;20.05;;;10.90;99.90;;;;;;5093602;28;20032;-74
2022/05/06 05:37:02;;;;;;;195.98;27.67;;;10.90;99.90;;;;;;5094900;28;20082;-73
2022/05/06 05:39:28;;;;;;;62.15;17.58;;;10.90;99.90;;;;;;5077412;28;20047;-74
2022/05/06 05:41:54;;;;;;;39.60;16.73;;;10.90;99.90;;;;;;5076728;28;20047;-74
2022/05/06 05:49:49;;;;;;;71.25;16.83;;;10.90;99.90;;;;;;5094816;28;20122;-74
2022/05/06 05:52:15;;;;;;;37.55;17.20;;;11.00;99.90;;;;;;5094705;28;20419;-75
2022/05/06 05:54:40;;;;;;;41.75;13.13;;;10.90;99.90;;;;;;5094481;28;20119;-74
2022/05/06 05:57:06;;;;;;;55.15;16.60;;;10.90;99.90;;;;;;5094171;28;20052;-73
2022/05/06 05:59:35;;;;;;;51.75;15.80;;;10.90;99.90;;;;;;5094519;28;20031;-73
2022/05/06 06:02:04;;;;;;;44.25;15.15;;;10.90;99.90;;;;;;5094297;28;20094;-76
2022/05/06 06:04:30;;;;;;;87.57;17.98;;;10.90;99.90;;;;;;5094469;28;20122;-73
2022/05/06 06:06:56;;;;;;;81.38;17.63;;;11.00;99.90;;;;;;5094303;28;20248;-74
2022/05/06 06:09:22;;;;;;;92.57;18.10;;;11.00;99.90;;;;;;5094300;28;20043;-74
2022/05/06 06:11:49;;;;;;;51.33;16.88;;;11.20;99.90;;;;;;5094192;28;20048;-74
2022/05/06 06:14:16;;;;;;;32.17;15.50;;;11.20;99.90;;;;;;5094470;28;20208;-74
2022/05/06 06:16:45;;;;;;;41.25;16.65;;;11.20;99.90;;;;;;5076539;28;20062;-74
2022/05/06 06:19:11;;;;;;;32.08;16.00;;;11.20;99.90;;;;;;5094085;28;20385;-73
2022/05/06 06:21:37;;;;;;;37.58;18.80;;;11.10;99.90;;;;;;5093625;28;20087;-74
2022/05/06 06:24:03;;;;;;;29.60;16.30;;;11.10;99.90;;;;;;5094052;28;20058;-74
2022/05/06 06:26:29;;;;;;;32.97;17.35;;;11.10;99.90;;;;;;5093992;28;20122;-75
2022/05/06 06:28:55;;;;;;;44.08;20.02;;;11.20;99.90;;;;;;5076345;28;20086;-75
2022/05/06 06:31:21;;;;;;;52.70;23.00;;;11.30;99.90;;;;;;5093898;28;20044;-74
2022/05/06 06:33:47;;;;;;;46.63;21.05;;;11.30;99.90;;;;;;5094085;28;20044;-74
2022/05/06 06:36:13;;;;;;;36.90;19.80;;;11.40;99.90;;;;;;5093835;28;20563;-74
2022/05/06 06:38:39;;;;;;;46.03;20.15;;;11.40;99.90;;;;;;5093642;28;20092;-74
2022/05/06 06:41:05;;;;;;;41.60;20.00;;;11.50;99.90;;;;;;5093528;28;20044;-74
2022/05/06 06:43:31;;;;;;;36.60;19.08;;;11.50;99.90;;;;;;5093514;28;20051;-73
2022/05/06 06:45:57;;;;;;;38.65;19.02;;;11.50;99.90;;;;;;5073279;28;20044;-76
2022/05/06 06:48:26;;;;;;;52.25;19.02;;;11.50;99.90;;;;;;5075650;28;20097;-76
2022/05/06 06:50:55;;;;;;;41.35;19.60;;;11.60;99.90;;;;;;5093445;28;20097;-74
2022/05/06 06:53:21;;;;;;;33.58;18.67;;;11.70;99.90;;;;;;5093777;28;20381;-75
2022/05/06 06:55:48;;;;;;;56.97;22.67;;;11.80;99.90;;;;;;5093517;28;20345;-75
2022/05/06 06:58:14;;;;;;;48.95;21.27;;;11.80;99.90;;;;;;5093403;28;20076;-75
2022/05/06 07:00:42;;;;;;;34.80;19.45;;;11.90;99.90;;;;;;5093588;28;20115;-74
2022/05/06 07:03:09;;;;;;;54.20;24.05;;;11.90;99.90;;;;;;5093188;28;20094;-74
2022/05/06 07:05:36;;;;;;;34.13;20.23;;;11.80;99.90;;;;;;5093371;28;20353;-76
2022/05/06 07:13:31;;;;;;;28.52;18.10;;;11.80;99.90;;;;;;5093177;28;20086;-75
2022/05/06 07:15:57;;;;;;;35.55;20.17;;;11.80;99.90;;;;;;5093138;28;20368;-75
2022/05/06 07:18:23;;;;;;;28.85;18.60;;;11.80;99.90;;;;;;5092788;28;20040;-74
2022/05/06 07:20:49;;;;;;;26.35;17.27;;;11.90;99.90;;;;;;5074788;28;20449;-74
2022/05/06 07:23:15;;;;;;;25.05;16.42;;;12.00;99.90;;;;;;5074954;28;20040;-74
2022/05/06 07:25:42;;;;;;;21.65;15.88;;;12.10;99.90;;;;;;5091492;28;20059;-74
2022/05/06 07:28:08;;;;;;;19.58;14.82;;;12.00;99.90;;;;;;5092374;28;20073;-75
2022/05/06 07:30:34;;;;;;;19.48;13.55;;;12.10;99.90;;;;;;5092378;28;20453;-75
2022/05/06 07:33:00;;;;;;;18.08;13.65;;;12.00;99.90;;;;;;5092580;28;20050;-74
2022/05/06 07:35:26;;;;;;;15.52;11.65;;;12.10;99.90;;;;;;5072103;28;20494;-74
2022/05/06 07:37:51;;;;;;;15.18;11.00;;;12.10;99.90;;;;;;5092891;28;20367;-75
2022/05/06 07:40:17;;;;;;;15.15;11.18;;;12.10;99.90;;;;;;5092833;28;20122;-76
2022/05/06 07:42:45;;;;;;;18.23;13.15;;;12.10;99.90;;;;;;5092660;28;20461;-75
2022/05/06 07:45:16;;;;;;;16.42;13.20;;;12.00;99.90;;;;;;5074908;28;20052;-74
2022/05/06 07:47:41;;;;;;;15.60;11.95;;;12.20;99.90;;;;;;5092426;28;20040;-76
2022/05/06 07:50:07;;;;;;;13.65;11.23;;;12.40;99.90;;;;;;5092589;28;20052;-76
2022/05/06 07:52:33;;;;;;;15.80;12.18;;;12.40;99.90;;;;;;5074653;28;20051;-76
2022/05/06 07:54:59;;;;;;;15.25;12.18;;;12.50;99.90;;;;;;5074499;28;20048;-74
2022/05/06 07:57:24;;;;;;;11.70;9.60;;;12.60;99.90;;;;;;5073544;28;20050;-76
2022/05/06 07:59:50;;;;;;;11.68;9.05;;;12.80;99.90;;;;;;5091822;28;20330;-75
2022/05/06 08:05:00;;;;;;;9.77;8.35;;;13.50;99.90;;;;;;5092254;28;20059;-79
2022/05/06 08:07:26;;;;;;;11.40;9.95;;;14.30;99.90;;;;;;5074780;28;20362;-75
2022/05/06 08:09:52;;;;;;;10.70;9.57;;;14.70;99.90;;;;;;5092317;28;20044;-76
2022/05/06 08:12:17;;;;;;;11.55;9.73;;;14.80;99.90;;;;;;5092496;28;20040;-75
2022/05/06 08:14:44;;;;;;;10.88;9.68;;;14.90;99.90;;;;;;5092310;28;20085;-75
2022/05/06 08:17:11;;;;;;;10.50;8.65;;;14.90;99.90;;;;;;5092290;28;20148;-76
2022/05/06 08:19:37;;;;;;;10.43;8.38;;;14.90;99.90;;;;;;5074103;28;20052;-75
2022/05/06 08:22:03;;;;;;;11.13;8.80;;;14.90;99.90;;;;;;5091728;28;20048;-74
2022/05/06 08:24:29;;;;;;;11.05;9.57;;;15.00;99.90;;;;;;5092040;28;20071;-76
2022/05/06 08:26:55;;;;;;;10.60;7.55;;;15.10;99.90;;;;;;5091981;28;20071;-75
2022/05/06 08:29:22;;;;;;;10.38;8.57;;;15.20;99.90;;;;;;5091855;28;20109;-74
2022/05/06 08:31:48;;;;;;;9.38;8.05;;;15.30;99.90;;;;;;5074378;28;20047;-74
2022/05/06 08:34:14;;;;;;;10.52;8.85;;;15.50;99.90;;;;;;5091830;28;20101;-75
2022/05/06 08:36:43;;;;;;;9.05;7.68;;;15.50;99.90;;;;;;5092207;28;20040;-76
2022/05/06 08:39:11;;;;;;;9.13;7.78;;;15.70;99.90;;;;;;5091532;28;20456;-75
2022/05/06 08:41:38;;;;;;;8.88;7.97;;;15.90;99.90;;;;;;5074533;28;20050;-74
2022/05/06 08:52:44;;;;;;;9.02;7.68;;;15.90;99.90;;;;;;5091559;28;20491;-75
2022/05/06 08:55:10;;;;;;;9.95;7.18;;;16.00;99.90;;;;;;5091511;28;20462;-75
2022/05/06 08:57:36;;;;;;;10.77;7.90;;;16.00;99.90;;;;;;5091515;28;20043;-75
2022/05/06 09:00:06;;;;;;;9.90;7.18;;;16.00;99.90;;;;;;5091774;28;20230;-73
2022/05/06 09:02:32;;;;;;;9.13;7.47;;;15.90;99.90;;;;;;5091513;28;20043;-75
2022/05/06 09:04:58;;;;;;;10.55;7.75;;;15.90;99.90;;;;;;5073835;28;20048;-76
2022/05/06 09:07:25;;;;;;;7.80;6.85;;;16.00;99.90;;;;;;5074115;28;20048;-74
2022/05/06 09:10:13;;;;;;;9.68;7.63;;;16.20;99.90;;;;;;5092696;28;20040;-76
2022/05/06 09:12:44;;;;;;;9.23;8.02;;;16.40;99.90;;;;;;5095313;28;20573;-75
2022/05/06 09:17:59;;;;;;;7.97;7.18;;;16.70;99.90;;;;;;5095347;28;20451;-74
2022/05/06 09:20:27;;;;;;;8.07;6.18;;;16.70;99.90;;;;;;5094779;28;20383;-75
2022/05/06 09:22:54;;;;;;;6.93;6.22;;;16.80;99.90;;;;;;5095117;28;20117;-77
2022/05/06 09:25:40;;;;;;;7.18;6.13;;;16.90;99.90;;;;;;5077484;28;20076;-74
2022/05/06 09:28:32;;;;;;;5.85;5.25;;;17.10;99.90;;;;;;5095259;28;20522;-75
2022/05/06 09:31:06;;;;;;;6.93;6.22;;;17.40;99.90;;;;;;5095130;28;20531;-76
2022/05/06 09:33:36;;;;;;;7.78;5.93;;;17.40;99.90;;;;;;5095065;28;20043;-76
2022/05/06 09:36:29;;;;;;;6.78;6.05;;;17.40;99.90;;;;;;5074699;28;20078;-75
2022/05/06 09:39:10;;;;;;;7.20;5.25;;;17.70;99.90;;;;;;5081705;28;20071;-74
2022/05/06 09:41:40;;;;;;;6.03;4.72;;;17.90;99.90;;;;;;5076772;28;20043;-75
2022/05/06 09:44:08;;;;;;;8.52;5.03;;;18.30;99.90;;;;;;5076557;28;20036;-75
2022/05/06 09:46:35;;;;;;;5.97;4.70;;;18.70;99.90;;;;;;5074320;28;20055;-74
2022/05/06 09:49:02;;;;;;;5.05;4.53;;;18.90;99.90;;;;;;5076993;28;20051;-74
2022/05/06 09:51:33;;;;;;;6.25;4.10;;;19.00;99.90;;;;;;5094889;28;20059;-75
2022/05/06 09:54:00;;;;;;;4.90;4.13;;;19.40;99.90;;;;;;5094546;28;20051;-75
2022/05/06 09:56:27;;;;;;;4.07;3.30;;;19.50;99.90;;;;;;5076714;28;20055;-75
2022/05/06 09:58:54;;;;;;;5.75;3.60;;;19.90;99.90;;;;;;5094270;28;20096;-76
2022/05/06 10:01:21;;;;;;;4.55;3.90;;;20.00;99.90;;;;;;5076739;28;20055;-75
2022/05/06 10:03:47;;;;;;;5.70;3.70;;;20.30;99.90;;;;;;5094554;28;20036;-77
2022/05/06 10:06:14;;;;;;;5.53;5.00;;;20.70;99.90;;;;;;5076752;28;20044;-75
2022/05/06 10:08:50;;;;;;;5.18;4.40;;;20.90;99.90;;;;;;5076780;28;20079;-75
2022/05/06 10:11:24;;;;;;;5.28;4.50;;;20.90;99.90;;;;;;5076416;28;20039;-75
2022/05/06 10:13:52;;;;;;;5.70;5.10;;;20.80;99.90;;;;;;5076739;28;20127;-77
2022/05/06 10:16:18;;;;;;;6.20;5.15;;;20.80;99.90;;;;;;5094330;28;20335;-74
2022/05/06 10:18:44;;;;;;;5.93;5.10;;;20.90;99.90;;;;;;5076382;28;20044;-75
2022/05/06 10:21:14;;;;;;;6.55;5.65;;;21.00;99.90;;;;;;5093279;28;20425;-74
2022/05/06 10:23:51;;;;;;;6.30;4.80;;;21.20;99.90;;;;;;5094075;28;20043;-75
2022/05/06 10:26:42;;;;;;;6.15;5.50;;;21.40;99.90;;;;;;5094249;28;20475;-76
2022/05/06 10:32:25;;;;;;;6.90;5.57;;;22.10;99.90;;;;;;5088749;28;20146;-75
2022/05/06 10:35:02;;;;;;;7.35;5.90;;;22.20;99.20;;;;;;5093828;28;20051;-76
2022/05/06 10:37:44;;;;;;;6.25;5.65;;;22.40;99.30;;;;;;5093841;28;20468;-76
2022/05/06 10:40:25;;;;;;;6.88;6.18;;;22.50;97.50;;;;;;5093776;28;20139;-76
2022/05/06 10:42:52;;;;;;;6.13;5.53;;;22.60;94.60;;;;;;5093589;28;20044;-76
2022/05/06 10:45:33;;;;;;;6.45;5.35;;;22.50;92.50;;;;;;5093712;28;20048;-75
2022/05/06 10:47:59;;;;;;;6.30;5.70;;;22.40;90.70;;;;;;5076006;28;20051;-74
2022/05/06 10:50:29;;;;;;;6.60;5.68;;;22.10;91.20;;;;;;5093536;28;20024;-76
2022/05/06 10:53:00;;;;;;;10.95;5.90;;;22.20;93.30;;;;;;5075834;28;20039;-75
2022/05/06 10:55:26;;;;;;;7.43;5.90;;;22.40;93.20;;;;;;5093496;28;20177;-77
2022/05/06 10:58:01;;;;;;;5.68;5.07;;;22.50;92.90;;;;;;5093453;28;20040;-76
2022/05/06 11:00:28;;;;;;;6.78;5.50;;;22.80;91.70;;;;;;5093386;28;20040;-78
2022/05/06 11:02:54;;;;;;;5.97;5.15;;;22.80;89.90;;;;;;5075467;28;20048;-77
2022/05/06 11:05:21;;;;;;;7.72;6.47;;;22.80;89.30;;;;;;5093215;28;20101;-76
2022/05/06 11:07:49;;;;;;;7.13;5.50;;;22.70;88.40;;;;;;5075737;28;20116;-76
2022/05/06 11:10:19;;;;;;;6.78;5.95;;;22.70;88.20;;;;;;5075550;28;20028;-75
2022/05/06 11:12:50;;;;;;;8.43;5.55;;;22.90;88.40;;;;;;5075361;28;20115;-76
2022/05/06 11:15:44;;;;;;;6.88;5.68;;;22.90;84.90;;;;;;5093130;28;20127;-77
2022/05/06 11:18:10;;;;;;;6.18;5.57;;;22.80;86.00;;;;;;5088476;28;20461;-76
2022/05/06 11:20:38;;;;;;;6.63;5.22;;;22.80;83.90;;;;;;5092700;28;20131;-76
2022/05/06 11:23:05;;;;;;;6.80;5.40;;;22.80;83.60;;;;;;5075170;28;20457;-77
2022/05/06 11:25:35;;;;;;;5.07;4.15;;;22.90;83.70;;;;;;5074962;28;20296;-75
2022/05/06 11:28:11;;;;;;;6.95;4.70;;;23.00;82.10;;;;;;5092812;28;20044;-77
2022/05/06 11:30:37;;;;;;;6.63;5.68;;;22.90;81.00;;;;;;5086749;28;20133;-76
2022/05/06 11:33:04;;;;;;;7.70;5.55;;;22.70;79.60;;;;;;5092259;28;20345;-76
2022/05/06 11:35:33;;;;;;;7.95;5.32;;;22.60;81.30;;;;;;5092569;28;20036;-76
2022/05/06 11:38:00;;;;;;;6.70;5.03;;;22.50;79.00;;;;;;5092842;28;20054;-77
2022/05/06 11:42:57;;;;;;;7.05;5.72;;;22.30;80.60;;;;;;5092627;28;20055;-74
2022/05/06 11:48:12;;;;;;;5.88;5.25;;;22.60;80.50;;;;;;5092579;28;20579;-78
2022/05/06 11:50:42;;;;;;;8.38;4.63;;;22.60;81.20;;;;;;5074893;28;20051;-75
2022/05/06 11:53:09;;;;;;;6.47;5.22;;;22.60;78.50;;;;;;5074437;28;20110;-75
2022/05/06 11:55:37;;;;;;;7.43;5.90;;;22.60;79.10;;;;;;5089369;28;20044;-78
2022/05/06 11:58:07;;;;;;;6.30;4.53;;;22.80;78.70;;;;;;5092393;28;20067;-74
2022/05/06 12:00:33;;;;;;;6.00;4.20;;;22.70;76.80;;;;;;5090189;28;20048;-76
2022/05/06 12:03:04;;;;;;;4.25;2.95;;;22.60;78.50;;;;;;5074346;28;20048;-77
2022/05/06 12:05:31;;;;;;;5.57;4.50;;;22.70;75.40;;;;;;5091702;28;20039;-77
2022/05/06 12:07:56;;;;;;;5.80;5.05;;;22.50;75.80;;;;;;5092287;28;20046;-74
2022/05/06 12:10:24;;;;;;;5.65;5.00;;;22.40;77.30;;;;;;5092197;28;20044;-75
2022/05/06 12:12:53;;;;;;;6.00;4.72;;;22.50;79.60;;;;;;5074947;28;20109;-76
2022/05/06 12:15:20;;;;;;;6.55;3.33;;;22.60;77.00;;;;;;5074959;28;20127;-75
2022/05/06 12:17:45;;;;;;;7.97;3.58;;;22.50;77.00;;;;;;5092011;28;20048;-74
2022/05/06 12:20:30;;;;;;;5.15;4.00;;;22.60;79.50;;;;;;5092193;28;20494;-74
2022/05/06 12:22:59;;;;;;;4.88;3.28;;;22.80;78.20;;;;;;5092224;28;20052;-75
2022/05/06 12:25:26;;;;;;;7.17;4.83;;;22.80;75.00;;;;;;5092217;28;20044;-73
2022/05/06 12:28:14;;;;;;;9.32;5.70;;;22.70;75.10;;;;;;5092178;28;20044;-74
2022/05/06 12:30:39;;;;;;;8.20;5.10;;;22.50;78.30;;;;;;5092194;28;20043;-74
2022/05/06 12:33:11;;;;;;;7.20;5.50;;;22.50;77.00;;;;;;5074133;28;20342;-73
2022/05/06 12:35:57;;;;;;;6.72;5.53;;;22.40;76.10;;;;;;5074530;28;20105;-74
2022/05/06 12:38:26;;;;;;;7.43;6.40;;;22.30;76.40;;;;;;5092089;28;20036;-74
2022/05/06 12:40:53;;;;;;;9.70;6.72;;;22.30;75.60;;;;;;5092226;28;20334;-76
2022/05/06 12:43:26;;;;;;;10.75;7.53;;;22.20;75.60;;;;;;5092515;28;20056;-74
2022/05/06 12:45:56;;;;;;;9.15;6.32;;;22.10;75.20;;;;;;5078359;28;20101;-74
2022/05/06 12:51:07;;;;;;;10.65;7.00;;;21.80;77.10;;;;;;5095894;28;20126;-74
2022/05/06 12:53:34;;;;;;;8.85;6.55;;;21.80;77.20;;;;;;5096007;28;20492;-74
2022/05/06 12:56:04;;;;;;;12.45;8.75;;;21.90;79.50;;;;;;5074920;28;20044;-76
2022/05/06 12:58:30;;;;;;;11.35;10.15;;;22.00;79.70;;;;;;5092420;28;20115;-74
2022/05/06 13:00:57;;;;;;;13.27;9.70;;;22.10;81.20;;;;;;5078050;28;20054;-74
2022/05/06 13:03:24;;;;;;;16.15;12.55;;;22.20;82.50;;;;;;5077607;28;20044;-77
2022/05/06 13:05:52;;;;;;;15.52;12.48;;;22.30;80.20;;;;;;5095695;28;20047;-78
2022/05/06 13:08:18;;;;;;;15.25;11.55;;;22.20;79.80;;;;;;5077506;28;20483;-76
2022/05/06 13:10:44;;;;;;;15.68;11.95;;;22.10;79.20;;;;;;5095499;28;20044;-78
2022/05/06 13:13:10;;;;;;;13.55;10.98;;;22.10;78.70;;;;;;5077569;28;20039;-79
2022/05/06 13:15:36;;;;;;;13.57;11.40;;;22.20;75.80;;;;;;5095457;28;20051;-76
2022/05/06 13:18:02;;;;;;;14.98;11.18;;;22.10;76.70;;;;;;5077438;28;20453;-77
2022/05/06 13:20:28;;;;;;;15.63;12.10;;;22.00;77.60;;;;;;5091616;28;20083;-76